This is the latest recevied weather packets stored in our database for station/object DB7GV-8. If no packets are shown the sender has not sent any weather packets the latest 10 day(s).
| Time | Temp. | Humidity | Pressure | Rain* | Wind** | Luminosity | Snow |
|---|---|---|---|---|---|---|---|
| 1777808186 | 26.67° C | 31% | 1015 hPa | - | - | - | - |
| 1777807280 | 27.22° C | 31% | 1015.2 hPa | - | - | - | - |
| 1777806375 | 27.78° C | 30% | 1015.3 hPa | - | - | - | - |
| 1777805470 | 27.22° C | 31% | 1015.4 hPa | - | - | - | - |
| 1777804564 | 27.78° C | 31% | 1015.6 hPa | - | - | - | - |
| 1777803659 | 27.78° C | 31% | 1015.7 hPa | - | - | - | - |
| 1777802753 | 26.67° C | 33% | 1015.8 hPa | - | - | - | - |
| 1777801848 | 26.11° C | 33% | 1015.9 hPa | - | - | - | - |
| 1777800943 | 27.22° C | 33% | 1016.1 hPa | - | - | - | - |
| 1777800038 | 26.11° C | 35% | 1016.2 hPa | - | - | - | - |
| 1777794605 | 41.67° C | 17% | 1017.1 hPa | - | - | - | - |
| 1777793700 | 38.89° C | 19% | 1017.1 hPa | - | - | - | - |
| 1777792794 | 38.33° C | 21% | 1017.3 hPa | - | - | - | - |
| 1777791888 | 37.22° C | 24% | 1017.5 hPa | - | - | - | - |
| 1777790983 | 32.78° C | 35% | 1017.5 hPa | - | - | - | - |
| 1777790078 | 14.44° C | 69% | 1017.3 hPa | - | - | - | - |
| 1777789172 | 12.78° C | 75% | 1017.2 hPa | - | - | - | - |
| 1777788267 | 12.22° C | 76% | 1017.1 hPa | - | - | - | - |
| 1777787362 | 12.22° C | 77% | 1016.9 hPa | - | - | - | - |
| 1777786456 | 11.11° C | 79% | 1016.9 hPa | - | - | - | - |
| 1777785550 | 10.56° C | 80% | 1016.8 hPa | - | - | - | - |
| 1777784645 | 10° C | 81% | 1016.9 hPa | - | - | - | - |
| 1777783740 | 9.44° C | 81% | 1016.9 hPa | - | - | - | - |
| 1777782834 | 9.44° C | 80% | 1016.9 hPa | - | - | - | - |
| 1777781929 | 8.89° C | 80% | 1016.9 hPa | - | - | - | - |
* Rain since midnight (hover to see other rain measurements)
** Current wind speed in m/s (hover to see current wind gust speed)